MTN7109 TAPA-TJSJ
Flight info
| Callsign | MTN7109 |
|---|---|
| Flight time | 1h 55m |
| Altitude | 6000 |
| Route | ANU G633 GABAR DCT COY RTE4 VEDAS DCT SJU |
| Aircraft | C208/L-SDF/C |
Departure
| Time | 2026-04-29 05:33 |
|---|---|
| Airport | V. C. Bird International Airport (TAPA) |
Arrival
| Time | 2026-04-29 07:28 |
|---|---|
| Airport | Luis Munoz Marin International Airport (TJSJ) |
| Time | Latitude | Longitude | Altitude | Speed | Heading |
|---|---|---|---|---|---|
| 2026-04-29 05:09 | 17.14173 | -61.78831 | 40 ft | 0 kts | 269° |
| 2026-04-29 05:26 | 17.14163 | -61.78835 | 40 ft | 7 kts | 172° |
| 2026-04-29 05:26 | 17.14101 | -61.78877 | 41 ft | 14 kts | 238° |
| 2026-04-29 05:26 | 17.14040 | -61.78977 | 42 ft | 19 kts | 234° |
| 2026-04-29 05:27 | 17.13967 | -61.79105 | 44 ft | 21 kts | 227° |
| 2026-04-29 05:27 | 17.13797 | -61.79305 | 48 ft | 14 kts | 239° |
| 2026-04-29 05:27 | 17.13774 | -61.79345 | 49 ft | 0 kts | 248° |
| 2026-04-29 05:28 | 17.13761 | -61.79359 | 49 ft | 7 kts | 217° |
| 2026-04-29 05:28 | 17.13711 | -61.79421 | 50 ft | 16 kts | 238° |
| 2026-04-29 05:29 | 17.13640 | -61.79542 | 53 ft | 23 kts | 242° |
| 2026-04-29 05:29 | 17.13543 | -61.79703 | 55 ft | 28 kts | 232° |
| 2026-04-29 05:29 | 17.13424 | -61.79837 | 58 ft | 11 kts | 193° |
| 2026-04-29 05:29 | 17.13369 | -61.79858 | 57 ft | 1 kts | 208° |
| 2026-04-29 05:30 | 17.13339 | -61.79876 | 57 ft | 11 kts | 214° |
| 2026-04-29 05:30 | 17.13272 | -61.79963 | 56 ft | 18 kts | 237° |
| 2026-04-29 05:30 | 17.13195 | -61.80090 | 57 ft | 23 kts | 238° |
| 2026-04-29 05:30 | 17.13121 | -61.80222 | 64 ft | 11 kts | 246° |
| 2026-04-29 05:31 | 17.13122 | -61.80196 | 62 ft | 0 kts | 59° |
| 2026-04-29 05:31 | 17.13147 | -61.80152 | 59 ft | 22 kts | 58° |
| 2026-04-29 05:31 | 17.13312 | -61.79872 | 57 ft | 67 kts | 57° |
| 2026-04-29 05:31 | 17.13622 | -61.79355 | 85 ft | 95 kts | 56° |
| 2026-04-29 05:32 | 17.14032 | -61.78799 | 243 ft | 99 kts | 47° |
| 2026-04-29 05:32 | 17.14537 | -61.78314 | 396 ft | 103 kts | 32° |
| 2026-04-29 05:32 | 17.15176 | -61.78160 | 645 ft | 95 kts | 348° |
| 2026-04-29 05:32 | 17.15927 | -61.78207 | 660 ft | 110 kts | 354° |
| 2026-04-29 05:33 | 17.16648 | -61.78362 | 884 ft | 106 kts | 350° |
| 2026-04-29 05:33 | 17.17394 | -61.78393 | 980 ft | 115 kts | 355° |
| 2026-04-29 05:33 | 17.18214 | -61.78442 | 1116 ft | 116 kts | 354° |
| 2026-04-29 05:33 | 17.19004 | -61.78496 | 1312 ft | 115 kts | 354° |
| 2026-04-29 05:34 | 17.19816 | -61.78557 | 1499 ft | 119 kts | 354° |
| 2026-04-29 05:34 | 17.20657 | -61.78620 | 1700 ft | 123 kts | 354° |
| 2026-04-29 05:34 | 17.21523 | -61.78685 | 1904 ft | 126 kts | 354° |
| 2026-04-29 05:34 | 17.22408 | -61.78751 | 2115 ft | 129 kts | 354° |
| 2026-04-29 05:35 | 17.23305 | -61.78819 | 2322 ft | 130 kts | 354° |
| 2026-04-29 05:35 | 17.24195 | -61.78969 | 2520 ft | 130 kts | 329° |
| 2026-04-29 05:35 | 17.24627 | -61.79713 | 2785 ft | 122 kts | 270° |
| 2026-04-29 05:35 | 17.24621 | -61.80580 | 3031 ft | 117 kts | 269° |
| 2026-04-29 05:36 | 17.24640 | -61.81417 | 3267 ft | 113 kts | 271° |
| 2026-04-29 05:36 | 17.24687 | -61.82226 | 3501 ft | 109 kts | 272° |
| 2026-04-29 05:36 | 17.24746 | -61.83005 | 3731 ft | 105 kts | 273° |
| 2026-04-29 05:36 | 17.24807 | -61.83752 | 3958 ft | 101 kts | 273° |
| 2026-04-29 05:37 | 17.24871 | -61.84480 | 4147 ft | 100 kts | 273° |
| 2026-04-29 05:37 | 17.24936 | -61.85207 | 4312 ft | 102 kts | 273° |
| 2026-04-29 05:37 | 17.25006 | -61.85960 | 4449 ft | 107 kts | 274° |
| 2026-04-29 05:37 | 17.25081 | -61.86751 | 4593 ft | 112 kts | 274° |
| 2026-04-29 05:38 | 17.25158 | -61.87577 | 4741 ft | 116 kts | 274° |
| 2026-04-29 05:38 | 17.25239 | -61.88437 | 4888 ft | 121 kts | 274° |
| 2026-04-29 05:38 | 17.25323 | -61.89324 | 5034 ft | 125 kts | 274° |
| 2026-04-29 05:38 | 17.25408 | -61.90238 | 5177 ft | 128 kts | 274° |
| 2026-04-29 05:39 | 17.25497 | -61.91175 | 5317 ft | 131 kts | 274° |
| 2026-04-29 05:39 | 17.25586 | -61.92128 | 5454 ft | 133 kts | 274° |
| 2026-04-29 05:39 | 17.25676 | -61.93102 | 5587 ft | 136 kts | 274° |
| 2026-04-29 05:39 | 17.25770 | -61.94105 | 5725 ft | 137 kts | 274° |
| 2026-04-29 05:40 | 17.25863 | -61.95103 | 5865 ft | 139 kts | 274° |
| 2026-04-29 05:40 | 17.25955 | -61.96102 | 5979 ft | 141 kts | 274° |
| 2026-04-29 05:40 | 17.26053 | -61.97155 | 5991 ft | 149 kts | 274° |
| 2026-04-29 05:40 | 17.26156 | -61.98262 | 5994 ft | 156 kts | 274° |
| 2026-04-29 05:41 | 17.26263 | -61.99407 | 5996 ft | 160 kts | 274° |
| 2026-04-29 05:41 | 17.26371 | -62.00579 | 5993 ft | 163 kts | 274° |
| 2026-04-29 05:41 | 17.26481 | -62.01766 | 5990 ft | 165 kts | 274° |
| 2026-04-29 05:41 | 17.26592 | -62.02963 | 5993 ft | 166 kts | 274° |
| 2026-04-29 05:42 | 17.26703 | -62.04164 | 5993 ft | 166 kts | 274° |
| 2026-04-29 05:42 | 17.26814 | -62.05360 | 5991 ft | 163 kts | 274° |
| 2026-04-29 05:42 | 17.26922 | -62.06535 | 5987 ft | 162 kts | 274° |
| 2026-04-29 05:42 | 17.27030 | -62.07697 | 5981 ft | 159 kts | 274° |
| 2026-04-29 05:43 | 17.27135 | -62.08844 | 5976 ft | 158 kts | 274° |
| 2026-04-29 05:43 | 17.27240 | -62.09983 | 5973 ft | 157 kts | 274° |
| 2026-04-29 05:43 | 17.27344 | -62.11114 | 5973 ft | 156 kts | 274° |
| 2026-04-29 05:43 | 17.27447 | -62.12239 | 5975 ft | 155 kts | 274° |
| 2026-04-29 05:44 | 17.27551 | -62.13364 | 5973 ft | 155 kts | 274° |
| 2026-04-29 05:44 | 17.27653 | -62.14485 | 5973 ft | 155 kts | 274° |
| 2026-04-29 05:44 | 17.27755 | -62.15591 | 5974 ft | 155 kts | 274° |
| 2026-04-29 05:44 | 17.27859 | -62.16726 | 5973 ft | 155 kts | 274° |
| 2026-04-29 05:45 | 17.27961 | -62.17830 | 5973 ft | 155 kts | 274° |
| 2026-04-29 05:45 | 17.28063 | -62.18949 | 5973 ft | 155 kts | 274° |
| 2026-04-29 05:45 | 17.28165 | -62.20068 | 5973 ft | 155 kts | 274° |
| 2026-04-29 05:45 | 17.28268 | -62.21187 | 5975 ft | 155 kts | 274° |
| 2026-04-29 05:46 | 17.28371 | -62.22322 | 5973 ft | 155 kts | 274° |
| 2026-04-29 05:46 | 17.28473 | -62.23426 | 5974 ft | 155 kts | 274° |
| 2026-04-29 05:46 | 17.28575 | -62.24546 | 5974 ft | 155 kts | 274° |
| 2026-04-29 05:46 | 17.28677 | -62.25665 | 5974 ft | 155 kts | 274° |
| 2026-04-29 05:47 | 17.28780 | -62.26786 | 5974 ft | 155 kts | 274° |
| 2026-04-29 05:47 | 17.28881 | -62.27906 | 5974 ft | 155 kts | 274° |
| 2026-04-29 05:47 | 17.28984 | -62.29027 | 5974 ft | 155 kts | 274° |
| 2026-04-29 05:47 | 17.29086 | -62.30147 | 5974 ft | 155 kts | 274° |
| 2026-04-29 05:48 | 17.29188 | -62.31269 | 5976 ft | 155 kts | 274° |
| 2026-04-29 05:48 | 17.29290 | -62.32389 | 5976 ft | 155 kts | 274° |
| 2026-04-29 05:48 | 17.29392 | -62.33512 | 5974 ft | 155 kts | 274° |
| 2026-04-29 05:48 | 17.29494 | -62.34633 | 5974 ft | 155 kts | 274° |
| 2026-04-29 05:49 | 17.29595 | -62.35756 | 5974 ft | 155 kts | 274° |
| 2026-04-29 05:49 | 17.29698 | -62.36879 | 5974 ft | 155 kts | 274° |
| 2026-04-29 05:49 | 17.29799 | -62.37998 | 5994 ft | 154 kts | 274° |
| 2026-04-29 05:49 | 17.29900 | -62.39113 | 5992 ft | 154 kts | 274° |
| 2026-04-29 05:50 | 17.30000 | -62.40217 | 5992 ft | 154 kts | 274° |
| 2026-04-29 05:50 | 17.30102 | -62.41336 | 5992 ft | 155 kts | 274° |
| 2026-04-29 05:50 | 17.30203 | -62.42457 | 5992 ft | 155 kts | 274° |
| 2026-04-29 05:50 | 17.30305 | -62.43578 | 5993 ft | 155 kts | 274° |
| 2026-04-29 05:51 | 17.30405 | -62.44701 | 5993 ft | 155 kts | 274° |
| 2026-04-29 05:51 | 17.30507 | -62.45824 | 5993 ft | 155 kts | 274° |
| 2026-04-29 05:51 | 17.30609 | -62.46947 | 5993 ft | 155 kts | 274° |
| 2026-04-29 05:51 | 17.30710 | -62.48071 | 5993 ft | 155 kts | 274° |
| 2026-04-29 05:52 | 17.30811 | -62.49195 | 5993 ft | 155 kts | 274° |
| 2026-04-29 05:52 | 17.30912 | -62.50320 | 5993 ft | 155 kts | 274° |
| 2026-04-29 05:52 | 17.31014 | -62.51444 | 5993 ft | 155 kts | 274° |
| 2026-04-29 05:52 | 17.31115 | -62.52570 | 5993 ft | 155 kts | 274° |
| 2026-04-29 05:53 | 17.31216 | -62.53695 | 5993 ft | 155 kts | 274° |
| 2026-04-29 05:53 | 17.31317 | -62.54819 | 5992 ft | 155 kts | 274° |
| 2026-04-29 05:53 | 17.31418 | -62.55944 | 5992 ft | 155 kts | 274° |
| 2026-04-29 05:53 | 17.31519 | -62.57069 | 5992 ft | 155 kts | 274° |
| 2026-04-29 05:54 | 17.31620 | -62.58194 | 5992 ft | 155 kts | 274° |
| 2026-04-29 05:54 | 17.31721 | -62.59320 | 5992 ft | 155 kts | 274° |
| 2026-04-29 05:54 | 17.31822 | -62.60445 | 5992 ft | 155 kts | 274° |
| 2026-04-29 05:54 | 17.31922 | -62.61572 | 5992 ft | 155 kts | 274° |
| 2026-04-29 05:55 | 17.32023 | -62.62698 | 5992 ft | 155 kts | 274° |
| 2026-04-29 05:55 | 17.32123 | -62.63824 | 5992 ft | 155 kts | 274° |
| 2026-04-29 05:55 | 17.32224 | -62.64949 | 5991 ft | 155 kts | 274° |
| 2026-04-29 05:55 | 17.32325 | -62.66075 | 5991 ft | 155 kts | 274° |
| 2026-04-29 05:56 | 17.32425 | -62.67201 | 5991 ft | 155 kts | 274° |
| 2026-04-29 05:56 | 17.32526 | -62.68327 | 5991 ft | 155 kts | 274° |
| 2026-04-29 05:56 | 17.32626 | -62.69453 | 5991 ft | 155 kts | 274° |
| 2026-04-29 05:56 | 17.32727 | -62.70580 | 5991 ft | 156 kts | 274° |
| 2026-04-29 05:57 | 17.32826 | -62.71706 | 5991 ft | 155 kts | 274° |
| 2026-04-29 05:57 | 17.32926 | -62.72834 | 5992 ft | 156 kts | 274° |
| 2026-04-29 05:57 | 17.33028 | -62.73963 | 5991 ft | 156 kts | 274° |
| 2026-04-29 05:57 | 17.33127 | -62.75091 | 5990 ft | 155 kts | 274° |
| 2026-04-29 05:58 | 17.33226 | -62.76211 | 5995 ft | 154 kts | 274° |
| 2026-04-29 05:58 | 17.33326 | -62.77331 | 5996 ft | 155 kts | 274° |
| 2026-04-29 05:58 | 17.33426 | -62.78459 | 5997 ft | 156 kts | 274° |
| 2026-04-29 05:58 | 17.33528 | -62.79591 | 5997 ft | 156 kts | 274° |
| 2026-04-29 05:59 | 17.33627 | -62.80725 | 5998 ft | 156 kts | 274° |
| 2026-04-29 05:59 | 17.33727 | -62.81857 | 5998 ft | 156 kts | 274° |
| 2026-04-29 05:59 | 17.33827 | -62.82991 | 5998 ft | 156 kts | 274° |
| 2026-04-29 05:59 | 17.33927 | -62.84124 | 5997 ft | 156 kts | 274° |
| 2026-04-29 06:00 | 17.33994 | -62.84873 | 5997 ft | 156 kts | 274° |
| 2026-04-29 06:00 | 17.34093 | -62.86004 | 5997 ft | 156 kts | 274° |
| 2026-04-29 06:00 | 17.34193 | -62.87134 | 5996 ft | 156 kts | 274° |
| 2026-04-29 06:00 | 17.34292 | -62.88263 | 5996 ft | 156 kts | 274° |
| 2026-04-29 06:01 | 17.34392 | -62.89392 | 5996 ft | 156 kts | 274° |
| 2026-04-29 06:01 | 17.34524 | -62.90887 | 5995 ft | 156 kts | 274° |
| 2026-04-29 06:01 | 17.34623 | -62.92015 | 5995 ft | 156 kts | 274° |
| 2026-04-29 06:01 | 17.34690 | -62.92777 | 5995 ft | 156 kts | 274° |
| 2026-04-29 06:02 | 17.34789 | -62.93906 | 5995 ft | 156 kts | 274° |
| 2026-04-29 06:02 | 17.34887 | -62.95019 | 5994 ft | 156 kts | 274° |
| 2026-04-29 06:02 | 17.35020 | -62.96529 | 5993 ft | 156 kts | 274° |
| 2026-04-29 06:02 | 17.35118 | -62.97658 | 5994 ft | 156 kts | 274° |
| 2026-04-29 06:03 | 17.35184 | -62.98405 | 5994 ft | 156 kts | 274° |
| 2026-04-29 06:03 | 17.35282 | -62.99533 | 5994 ft | 156 kts | 274° |
| 2026-04-29 06:03 | 17.35461 | -63.00650 | 5991 ft | 156 kts | 283° |
| 2026-04-29 06:03 | 17.35726 | -63.01751 | 5991 ft | 156 kts | 282° |
| 2026-04-29 06:04 | 17.35979 | -63.02856 | 5992 ft | 156 kts | 282° |
| 2026-04-29 06:04 | 17.36230 | -63.03959 | 5992 ft | 156 kts | 282° |
| 2026-04-29 06:04 | 17.36482 | -63.05064 | 5992 ft | 156 kts | 282° |
| 2026-04-29 06:04 | 17.36734 | -63.06168 | 5992 ft | 156 kts | 282° |
| 2026-04-29 06:05 | 17.36986 | -63.07272 | 5992 ft | 156 kts | 282° |
| 2026-04-29 06:05 | 17.37239 | -63.08378 | 5991 ft | 156 kts | 282° |
| 2026-04-29 06:05 | 17.37491 | -63.09483 | 5991 ft | 156 kts | 282° |
| 2026-04-29 06:05 | 17.37747 | -63.10603 | 5991 ft | 156 kts | 282° |
| 2026-04-29 06:06 | 17.37999 | -63.11708 | 5991 ft | 156 kts | 282° |
| 2026-04-29 06:06 | 17.38251 | -63.12814 | 5991 ft | 156 kts | 282° |
| 2026-04-29 06:06 | 17.38503 | -63.13918 | 5991 ft | 156 kts | 282° |
| 2026-04-29 06:06 | 17.38755 | -63.15024 | 5990 ft | 156 kts | 282° |
| 2026-04-29 06:07 | 17.39004 | -63.16114 | 5990 ft | 156 kts | 282° |
| 2026-04-29 06:07 | 17.39255 | -63.17219 | 5990 ft | 156 kts | 282° |
| 2026-04-29 06:07 | 17.39508 | -63.18323 | 5990 ft | 156 kts | 282° |
| 2026-04-29 06:07 | 17.39759 | -63.19428 | 5991 ft | 156 kts | 282° |
| 2026-04-29 06:08 | 17.40010 | -63.20532 | 5992 ft | 156 kts | 282° |
| 2026-04-29 06:08 | 17.40262 | -63.21637 | 5991 ft | 156 kts | 282° |
| 2026-04-29 06:08 | 17.40513 | -63.22741 | 5992 ft | 156 kts | 282° |
| 2026-04-29 06:08 | 17.40765 | -63.23846 | 5991 ft | 156 kts | 282° |
| 2026-04-29 06:09 | 17.41016 | -63.24953 | 5991 ft | 156 kts | 282° |
| 2026-04-29 06:09 | 17.41268 | -63.26059 | 5991 ft | 156 kts | 282° |
| 2026-04-29 06:09 | 17.41519 | -63.27164 | 5991 ft | 156 kts | 282° |
| 2026-04-29 06:09 | 17.41771 | -63.28272 | 5991 ft | 156 kts | 282° |
| 2026-04-29 06:10 | 17.42023 | -63.29377 | 5991 ft | 156 kts | 282° |
| 2026-04-29 06:10 | 17.42273 | -63.30483 | 5991 ft | 156 kts | 282° |
| 2026-04-29 06:10 | 17.42525 | -63.31590 | 5991 ft | 156 kts | 282° |
| 2026-04-29 06:10 | 17.42776 | -63.32696 | 5990 ft | 156 kts | 282° |
| 2026-04-29 06:11 | 17.43027 | -63.33801 | 5990 ft | 156 kts | 282° |
| 2026-04-29 06:11 | 17.43278 | -63.34907 | 5990 ft | 156 kts | 282° |
| 2026-04-29 06:11 | 17.43529 | -63.36014 | 5990 ft | 156 kts | 282° |
| 2026-04-29 06:11 | 17.43780 | -63.37119 | 5992 ft | 156 kts | 282° |
| 2026-04-29 06:12 | 17.44030 | -63.38225 | 5991 ft | 156 kts | 282° |
| 2026-04-29 06:12 | 17.44282 | -63.39332 | 5991 ft | 156 kts | 282° |
| 2026-04-29 06:12 | 17.44532 | -63.40438 | 5991 ft | 156 kts | 282° |
| 2026-04-29 06:12 | 17.44783 | -63.41545 | 5991 ft | 156 kts | 282° |
| 2026-04-29 06:13 | 17.45030 | -63.42637 | 5991 ft | 156 kts | 282° |
| 2026-04-29 06:13 | 17.45281 | -63.43743 | 5991 ft | 156 kts | 282° |
| 2026-04-29 06:13 | 17.45532 | -63.44851 | 5991 ft | 156 kts | 282° |
| 2026-04-29 06:13 | 17.45782 | -63.45957 | 5990 ft | 156 kts | 282° |
| 2026-04-29 06:14 | 17.46032 | -63.47063 | 5990 ft | 156 kts | 282° |
| 2026-04-29 06:14 | 17.46283 | -63.48170 | 5990 ft | 156 kts | 282° |
| 2026-04-29 06:14 | 17.46533 | -63.49277 | 5992 ft | 156 kts | 282° |
| 2026-04-29 06:14 | 17.46783 | -63.50383 | 5991 ft | 156 kts | 282° |
| 2026-04-29 06:15 | 17.47033 | -63.51489 | 5992 ft | 156 kts | 282° |
| 2026-04-29 06:15 | 17.47283 | -63.52596 | 5992 ft | 156 kts | 282° |
| 2026-04-29 06:15 | 17.47534 | -63.53704 | 5991 ft | 156 kts | 282° |
| 2026-04-29 06:15 | 17.47784 | -63.54812 | 5992 ft | 156 kts | 282° |
| 2026-04-29 06:16 | 17.48034 | -63.55920 | 5991 ft | 156 kts | 282° |
| 2026-04-29 06:16 | 17.48284 | -63.57028 | 5991 ft | 156 kts | 282° |
| 2026-04-29 06:16 | 17.48534 | -63.58135 | 5991 ft | 156 kts | 282° |
| 2026-04-29 06:16 | 17.48784 | -63.59243 | 5991 ft | 156 kts | 282° |
| 2026-04-29 06:17 | 17.49033 | -63.60352 | 5991 ft | 156 kts | 282° |
| 2026-04-29 06:17 | 17.49284 | -63.61459 | 5991 ft | 156 kts | 282° |
| 2026-04-29 06:17 | 17.49533 | -63.62567 | 5990 ft | 156 kts | 282° |
| 2026-04-29 06:17 | 17.49783 | -63.63675 | 5990 ft | 156 kts | 282° |
| 2026-04-29 06:18 | 17.50032 | -63.64783 | 5990 ft | 156 kts | 282° |
| 2026-04-29 06:18 | 17.50282 | -63.65891 | 5990 ft | 156 kts | 282° |
| 2026-04-29 06:18 | 17.50531 | -63.66997 | 5992 ft | 156 kts | 282° |
| 2026-04-29 06:18 | 17.50780 | -63.68104 | 5991 ft | 156 kts | 282° |
| 2026-04-29 06:19 | 17.51030 | -63.69211 | 5991 ft | 156 kts | 282° |
| 2026-04-29 06:19 | 17.51278 | -63.70320 | 5991 ft | 156 kts | 282° |
| 2026-04-29 06:19 | 17.51528 | -63.71428 | 5991 ft | 156 kts | 282° |
| 2026-04-29 06:19 | 17.51777 | -63.72537 | 5991 ft | 156 kts | 282° |
| 2026-04-29 06:20 | 17.52026 | -63.73645 | 5991 ft | 156 kts | 282° |
| 2026-04-29 06:20 | 17.52276 | -63.74754 | 5991 ft | 156 kts | 282° |
| 2026-04-29 06:20 | 17.52525 | -63.75863 | 5991 ft | 156 kts | 282° |
| 2026-04-29 06:20 | 17.52774 | -63.76971 | 5991 ft | 156 kts | 282° |
| 2026-04-29 06:21 | 17.53023 | -63.78080 | 5991 ft | 156 kts | 282° |
| 2026-04-29 06:21 | 17.53271 | -63.79189 | 5990 ft | 156 kts | 282° |
| 2026-04-29 06:21 | 17.53520 | -63.80296 | 5990 ft | 156 kts | 282° |
| 2026-04-29 06:21 | 17.53769 | -63.81405 | 5991 ft | 156 kts | 282° |
| 2026-04-29 06:22 | 17.54017 | -63.82512 | 5991 ft | 156 kts | 282° |
| 2026-04-29 06:22 | 17.54266 | -63.83621 | 5991 ft | 156 kts | 282° |
| 2026-04-29 06:22 | 17.54514 | -63.84729 | 5991 ft | 156 kts | 282° |
| 2026-04-29 06:22 | 17.54763 | -63.85838 | 5991 ft | 156 kts | 282° |
| 2026-04-29 06:23 | 17.55011 | -63.86947 | 5991 ft | 156 kts | 282° |
| 2026-04-29 06:23 | 17.55260 | -63.88057 | 5991 ft | 156 kts | 282° |
| 2026-04-29 06:23 | 17.55508 | -63.89166 | 5991 ft | 156 kts | 282° |
| 2026-04-29 06:23 | 17.55756 | -63.90275 | 5990 ft | 156 kts | 282° |
| 2026-04-29 06:24 | 17.56005 | -63.91384 | 5990 ft | 156 kts | 282° |
| 2026-04-29 06:24 | 17.56252 | -63.92492 | 5990 ft | 156 kts | 282° |
| 2026-04-29 06:24 | 17.56501 | -63.93601 | 5991 ft | 156 kts | 282° |
| 2026-04-29 06:24 | 17.56749 | -63.94709 | 5991 ft | 156 kts | 282° |
| 2026-04-29 06:25 | 17.56996 | -63.95817 | 5991 ft | 156 kts | 282° |
| 2026-04-29 06:25 | 17.57244 | -63.96926 | 5991 ft | 156 kts | 282° |
| 2026-04-29 06:25 | 17.57492 | -63.98036 | 5991 ft | 156 kts | 282° |
| 2026-04-29 06:25 | 17.57739 | -63.99145 | 5991 ft | 156 kts | 282° |
| 2026-04-29 06:26 | 17.57988 | -64.00254 | 5991 ft | 156 kts | 282° |
| 2026-04-29 06:26 | 17.58235 | -64.01364 | 5991 ft | 156 kts | 282° |
| 2026-04-29 06:26 | 17.58480 | -64.02459 | 5990 ft | 156 kts | 282° |
| 2026-04-29 06:26 | 17.58727 | -64.03570 | 5990 ft | 156 kts | 282° |
| 2026-04-29 06:27 | 17.58975 | -64.04680 | 5990 ft | 156 kts | 282° |
| 2026-04-29 06:27 | 17.59226 | -64.05804 | 5990 ft | 156 kts | 282° |
| 2026-04-29 06:27 | 17.59473 | -64.06914 | 5992 ft | 156 kts | 282° |
| 2026-04-29 06:27 | 17.59717 | -64.08008 | 5991 ft | 156 kts | 282° |
| 2026-04-29 06:28 | 17.59968 | -64.09133 | 5991 ft | 156 kts | 282° |
| 2026-04-29 06:28 | 17.60214 | -64.10242 | 5991 ft | 156 kts | 282° |
| 2026-04-29 06:28 | 17.60459 | -64.11337 | 5991 ft | 156 kts | 282° |
| 2026-04-29 06:28 | 17.60708 | -64.12461 | 5991 ft | 156 kts | 282° |
| 2026-04-29 06:29 | 17.60956 | -64.13571 | 5990 ft | 156 kts | 282° |
| 2026-04-29 06:29 | 17.61203 | -64.14681 | 5990 ft | 156 kts | 282° |
| 2026-04-29 06:29 | 17.61449 | -64.15790 | 5990 ft | 156 kts | 282° |
| 2026-04-29 06:29 | 17.61696 | -64.16900 | 5990 ft | 156 kts | 282° |
| 2026-04-29 06:30 | 17.61943 | -64.18011 | 5990 ft | 156 kts | 282° |
| 2026-04-29 06:30 | 17.62437 | -64.20232 | 5991 ft | 156 kts | 282° |
| 2026-04-29 06:30 | 17.62683 | -64.21342 | 5991 ft | 156 kts | 282° |
| 2026-04-29 06:31 | 17.62930 | -64.22453 | 5991 ft | 156 kts | 282° |
| 2026-04-29 06:31 | 17.63177 | -64.23564 | 5991 ft | 156 kts | 282° |
| 2026-04-29 06:31 | 17.63423 | -64.24674 | 5991 ft | 156 kts | 282° |
| 2026-04-29 06:31 | 17.63670 | -64.25785 | 5990 ft | 156 kts | 282° |
| 2026-04-29 06:32 | 17.63916 | -64.26895 | 5990 ft | 156 kts | 282° |
| 2026-04-29 06:32 | 17.64162 | -64.28007 | 5990 ft | 156 kts | 282° |
| 2026-04-29 06:32 | 17.64408 | -64.29117 | 5990 ft | 156 kts | 282° |
| 2026-04-29 06:32 | 17.64655 | -64.30228 | 5991 ft | 156 kts | 282° |
| 2026-04-29 06:33 | 17.64901 | -64.31339 | 5992 ft | 156 kts | 282° |
| 2026-04-29 06:33 | 17.65147 | -64.32450 | 5992 ft | 156 kts | 282° |
| 2026-04-29 06:33 | 17.65393 | -64.33561 | 5991 ft | 156 kts | 282° |
| 2026-04-29 06:33 | 17.65639 | -64.34672 | 5991 ft | 157 kts | 282° |
| 2026-04-29 06:34 | 17.65885 | -64.35784 | 5991 ft | 156 kts | 282° |
| 2026-04-29 06:34 | 17.66131 | -64.36895 | 5991 ft | 156 kts | 282° |
| 2026-04-29 06:34 | 17.66376 | -64.38006 | 5991 ft | 156 kts | 282° |
| 2026-04-29 06:34 | 17.66623 | -64.39118 | 5991 ft | 156 kts | 282° |
| 2026-04-29 06:35 | 17.66868 | -64.40228 | 5990 ft | 156 kts | 282° |
| 2026-04-29 06:35 | 17.67114 | -64.41339 | 5990 ft | 156 kts | 282° |
| 2026-04-29 06:35 | 17.67359 | -64.42450 | 5991 ft | 156 kts | 282° |
| 2026-04-29 06:35 | 17.67604 | -64.43561 | 5991 ft | 156 kts | 282° |
| 2026-04-29 06:36 | 17.67850 | -64.44672 | 5990 ft | 156 kts | 282° |
| 2026-04-29 06:36 | 17.68095 | -64.45783 | 5992 ft | 156 kts | 282° |
| 2026-04-29 06:36 | 17.68340 | -64.46895 | 5991 ft | 157 kts | 282° |
| 2026-04-29 06:36 | 17.68586 | -64.48007 | 5991 ft | 157 kts | 282° |
| 2026-04-29 06:37 | 17.68831 | -64.49119 | 5991 ft | 157 kts | 282° |
| 2026-04-29 06:37 | 17.69077 | -64.50232 | 5991 ft | 157 kts | 282° |
| 2026-04-29 06:37 | 17.69321 | -64.51344 | 5991 ft | 157 kts | 282° |
| 2026-04-29 06:37 | 17.69567 | -64.52456 | 5991 ft | 156 kts | 282° |
| 2026-04-29 06:38 | 17.69812 | -64.53566 | 5990 ft | 156 kts | 282° |
| 2026-04-29 06:38 | 17.70056 | -64.54679 | 5990 ft | 156 kts | 282° |
| 2026-04-29 06:38 | 17.70301 | -64.55790 | 5990 ft | 156 kts | 282° |
| 2026-04-29 06:38 | 17.70546 | -64.56901 | 5992 ft | 156 kts | 282° |
| 2026-04-29 06:39 | 17.70790 | -64.58012 | 5992 ft | 156 kts | 282° |
| 2026-04-29 06:39 | 17.71035 | -64.59123 | 5992 ft | 156 kts | 282° |
| 2026-04-29 06:39 | 17.71279 | -64.60234 | 5991 ft | 156 kts | 282° |
| 2026-04-29 06:39 | 17.71524 | -64.61347 | 5991 ft | 157 kts | 282° |
| 2026-04-29 06:40 | 17.71768 | -64.62459 | 5991 ft | 157 kts | 282° |
| 2026-04-29 06:40 | 17.72009 | -64.63557 | 5991 ft | 157 kts | 282° |
| 2026-04-29 06:40 | 17.72257 | -64.64684 | 5991 ft | 157 kts | 282° |
| 2026-04-29 06:40 | 17.72501 | -64.65797 | 5991 ft | 157 kts | 282° |
| 2026-04-29 06:41 | 17.72746 | -64.66911 | 5991 ft | 157 kts | 282° |
| 2026-04-29 06:41 | 17.72991 | -64.68023 | 5991 ft | 156 kts | 282° |
| 2026-04-29 06:41 | 17.73234 | -64.69135 | 5991 ft | 157 kts | 282° |
| 2026-04-29 06:41 | 17.73478 | -64.70247 | 5995 ft | 157 kts | 282° |
| 2026-04-29 06:42 | 17.73715 | -64.71362 | 5993 ft | 157 kts | 281° |
| 2026-04-29 06:42 | 17.73948 | -64.72478 | 5994 ft | 157 kts | 281° |
| 2026-04-29 06:42 | 17.74183 | -64.73593 | 5992 ft | 157 kts | 281° |
| 2026-04-29 06:42 | 17.74418 | -64.74710 | 5993 ft | 157 kts | 281° |
| 2026-04-29 06:43 | 17.74653 | -64.75826 | 5993 ft | 157 kts | 281° |
| 2026-04-29 06:43 | 17.74889 | -64.76942 | 5992 ft | 157 kts | 281° |
| 2026-04-29 06:43 | 17.75124 | -64.78057 | 5993 ft | 157 kts | 281° |
| 2026-04-29 06:43 | 17.75358 | -64.79173 | 5993 ft | 157 kts | 281° |
| 2026-04-29 06:44 | 17.75590 | -64.80274 | 5993 ft | 157 kts | 281° |
| 2026-04-29 06:44 | 17.75825 | -64.81391 | 5994 ft | 157 kts | 281° |
| 2026-04-29 06:44 | 17.75985 | -64.82147 | 5991 ft | 157 kts | 281° |
| 2026-04-29 06:44 | 17.76219 | -64.83263 | 5992 ft | 157 kts | 281° |
| 2026-04-29 06:45 | 17.76530 | -64.84740 | 5990 ft | 156 kts | 281° |
| 2026-04-29 06:45 | 17.76764 | -64.85853 | 5992 ft | 156 kts | 281° |
| 2026-04-29 06:45 | 17.76997 | -64.86967 | 5993 ft | 156 kts | 281° |
| 2026-04-29 06:45 | 17.77231 | -64.88077 | 5992 ft | 156 kts | 281° |
| 2026-04-29 06:46 | 17.77465 | -64.89190 | 5992 ft | 156 kts | 281° |
| 2026-04-29 06:46 | 17.77624 | -64.89942 | 5992 ft | 156 kts | 281° |
| 2026-04-29 06:46 | 17.77857 | -64.91056 | 5992 ft | 156 kts | 281° |
| 2026-04-29 06:46 | 17.78091 | -64.92171 | 5992 ft | 157 kts | 281° |
| 2026-04-29 06:47 | 17.78322 | -64.93271 | 5993 ft | 157 kts | 281° |
| 2026-04-29 06:47 | 17.78556 | -64.94387 | 5992 ft | 157 kts | 281° |
| 2026-04-29 06:47 | 17.78790 | -64.95503 | 5991 ft | 157 kts | 281° |
| 2026-04-29 06:47 | 17.79023 | -64.96618 | 5992 ft | 157 kts | 281° |
| 2026-04-29 06:48 | 17.79257 | -64.97734 | 5992 ft | 157 kts | 281° |
| 2026-04-29 06:48 | 17.79491 | -64.98849 | 5992 ft | 157 kts | 281° |
| 2026-04-29 06:48 | 17.79725 | -64.99966 | 5990 ft | 157 kts | 281° |
| 2026-04-29 06:48 | 17.79959 | -65.01081 | 5992 ft | 157 kts | 281° |
| 2026-04-29 06:49 | 17.80192 | -65.02196 | 5992 ft | 157 kts | 281° |
| 2026-04-29 06:49 | 17.80425 | -65.03311 | 5991 ft | 157 kts | 281° |
| 2026-04-29 06:49 | 17.80659 | -65.04427 | 5991 ft | 156 kts | 281° |
| 2026-04-29 06:49 | 17.80892 | -65.05542 | 5991 ft | 157 kts | 281° |
| 2026-04-29 06:50 | 17.81126 | -65.06658 | 5991 ft | 157 kts | 281° |
| 2026-04-29 06:50 | 17.81358 | -65.07774 | 5991 ft | 157 kts | 281° |
| 2026-04-29 06:50 | 17.81592 | -65.08890 | 5991 ft | 157 kts | 281° |
| 2026-04-29 06:50 | 17.81825 | -65.10005 | 5991 ft | 157 kts | 281° |
| 2026-04-29 06:51 | 17.82056 | -65.11114 | 5991 ft | 157 kts | 281° |
| 2026-04-29 06:51 | 17.82234 | -65.11966 | 5991 ft | 157 kts | 281° |
| 2026-04-29 06:51 | 17.82468 | -65.13085 | 5991 ft | 157 kts | 281° |
| 2026-04-29 06:51 | 17.82701 | -65.14204 | 5990 ft | 157 kts | 281° |
| 2026-04-29 06:52 | 17.82935 | -65.15324 | 5990 ft | 157 kts | 281° |
| 2026-04-29 06:52 | 17.83168 | -65.16441 | 5991 ft | 157 kts | 281° |
| 2026-04-29 06:52 | 17.83401 | -65.17560 | 5991 ft | 157 kts | 281° |
| 2026-04-29 06:52 | 17.83634 | -65.18678 | 5991 ft | 157 kts | 281° |
| 2026-04-29 06:53 | 17.83867 | -65.19796 | 5991 ft | 157 kts | 281° |
| 2026-04-29 06:53 | 17.84097 | -65.20900 | 5991 ft | 157 kts | 281° |
| 2026-04-29 06:53 | 17.84330 | -65.22020 | 5991 ft | 157 kts | 281° |
| 2026-04-29 06:53 | 17.84563 | -65.23139 | 5991 ft | 157 kts | 281° |
| 2026-04-29 06:54 | 17.84796 | -65.24258 | 5991 ft | 157 kts | 281° |
| 2026-04-29 06:54 | 17.85028 | -65.25376 | 5990 ft | 157 kts | 281° |
| 2026-04-29 06:54 | 17.85261 | -65.26496 | 5990 ft | 157 kts | 281° |
| 2026-04-29 06:54 | 17.85506 | -65.27611 | 5990 ft | 157 kts | 288° |
| 2026-04-29 06:55 | 17.86117 | -65.28551 | 5992 ft | 157 kts | 310° |
| 2026-04-29 06:55 | 17.86825 | -65.29426 | 5996 ft | 157 kts | 307° |
| 2026-04-29 06:55 | 17.87493 | -65.30338 | 5997 ft | 157 kts | 306° |
| 2026-04-29 06:55 | 17.88152 | -65.31255 | 5998 ft | 157 kts | 306° |
| 2026-04-29 06:56 | 17.88811 | -65.32174 | 5998 ft | 158 kts | 306° |
| 2026-04-29 06:56 | 17.89468 | -65.33092 | 5998 ft | 158 kts | 306° |
| 2026-04-29 06:56 | 17.90128 | -65.34012 | 5998 ft | 158 kts | 306° |
| 2026-04-29 06:56 | 17.90786 | -65.34931 | 5998 ft | 158 kts | 306° |
| 2026-04-29 06:57 | 17.91446 | -65.35852 | 5998 ft | 158 kts | 306° |
| 2026-04-29 06:57 | 17.92105 | -65.36773 | 5998 ft | 158 kts | 306° |
| 2026-04-29 06:57 | 17.92766 | -65.37695 | 5989 ft | 158 kts | 306° |
| 2026-04-29 06:57 | 17.93427 | -65.38619 | 5989 ft | 158 kts | 306° |
| 2026-04-29 06:58 | 17.94087 | -65.39540 | 5989 ft | 158 kts | 306° |
| 2026-04-29 06:58 | 17.94746 | -65.40462 | 5989 ft | 158 kts | 306° |
| 2026-04-29 06:58 | 17.95405 | -65.41383 | 5989 ft | 158 kts | 306° |
| 2026-04-29 06:58 | 17.96065 | -65.42305 | 5988 ft | 158 kts | 306° |
| 2026-04-29 06:59 | 17.96722 | -65.43224 | 5988 ft | 158 kts | 306° |
| 2026-04-29 06:59 | 17.97381 | -65.44145 | 5988 ft | 158 kts | 306° |
| 2026-04-29 06:59 | 17.98039 | -65.45066 | 5988 ft | 158 kts | 306° |
| 2026-04-29 06:59 | 17.98698 | -65.45986 | 5987 ft | 158 kts | 306° |
| 2026-04-29 07:00 | 17.99356 | -65.46907 | 5987 ft | 158 kts | 306° |
| 2026-04-29 07:00 | 18.00014 | -65.47827 | 5987 ft | 158 kts | 306° |
| 2026-04-29 07:00 | 18.00672 | -65.48747 | 5987 ft | 158 kts | 306° |
| 2026-04-29 07:00 | 18.01327 | -65.49665 | 5987 ft | 158 kts | 306° |
| 2026-04-29 07:01 | 18.01988 | -65.50587 | 5987 ft | 158 kts | 306° |
| 2026-04-29 07:01 | 18.02647 | -65.51511 | 5988 ft | 158 kts | 306° |
| 2026-04-29 07:01 | 18.03306 | -65.52433 | 5988 ft | 158 kts | 306° |
| 2026-04-29 07:01 | 18.03968 | -65.53360 | 5988 ft | 158 kts | 306° |
| 2026-04-29 07:02 | 18.04629 | -65.54287 | 5988 ft | 158 kts | 306° |
| 2026-04-29 07:02 | 18.05289 | -65.55215 | 5988 ft | 158 kts | 304° |
| 2026-04-29 07:02 | 18.05898 | -65.56176 | 5988 ft | 158 kts | 303° |
| 2026-04-29 07:02 | 18.06529 | -65.57123 | 5987 ft | 158 kts | 303° |
| 2026-04-29 07:03 | 18.07145 | -65.58059 | 5987 ft | 158 kts | 303° |
| 2026-04-29 07:03 | 18.07768 | -65.59010 | 5987 ft | 158 kts | 303° |
| 2026-04-29 07:03 | 18.08399 | -65.59974 | 5987 ft | 158 kts | 303° |
| 2026-04-29 07:03 | 18.09020 | -65.60925 | 5987 ft | 158 kts | 303° |
| 2026-04-29 07:04 | 18.09641 | -65.61876 | 5986 ft | 158 kts | 303° |
| 2026-04-29 07:04 | 18.10262 | -65.62828 | 5986 ft | 158 kts | 303° |
| 2026-04-29 07:04 | 18.10883 | -65.63777 | 5986 ft | 158 kts | 303° |
| 2026-04-29 07:04 | 18.11496 | -65.64718 | 5986 ft | 158 kts | 303° |
| 2026-04-29 07:05 | 18.12119 | -65.65671 | 5985 ft | 158 kts | 303° |
| 2026-04-29 07:05 | 18.12580 | -65.66378 | 5985 ft | 158 kts | 303° |
| 2026-04-29 07:05 | 18.13200 | -65.67327 | 5984 ft | 157 kts | 303° |
| 2026-04-29 07:05 | 18.13819 | -65.68276 | 5984 ft | 157 kts | 303° |
| 2026-04-29 07:06 | 18.14441 | -65.69224 | 5983 ft | 157 kts | 303° |
| 2026-04-29 07:06 | 18.15064 | -65.70176 | 5915 ft | 161 kts | 303° |
| 2026-04-29 07:06 | 18.15691 | -65.71138 | 5737 ft | 158 kts | 303° |
| 2026-04-29 07:06 | 18.16302 | -65.72083 | 5557 ft | 156 kts | 303° |
| 2026-04-29 07:07 | 18.16914 | -65.73022 | 5376 ft | 155 kts | 303° |
| 2026-04-29 07:07 | 18.17503 | -65.73924 | 5371 ft | 145 kts | 303° |
| 2026-04-29 07:07 | 18.18057 | -65.74775 | 5374 ft | 138 kts | 303° |
| 2026-04-29 07:07 | 18.18593 | -65.75598 | 5374 ft | 134 kts | 303° |
| 2026-04-29 07:08 | 18.19182 | -65.76348 | 5372 ft | 132 kts | 310° |
| 2026-04-29 07:08 | 18.19783 | -65.77074 | 5376 ft | 131 kts | 309° |
| 2026-04-29 07:08 | 18.20372 | -65.77789 | 5442 ft | 124 kts | 309° |
| 2026-04-29 07:08 | 18.20923 | -65.78464 | 5629 ft | 120 kts | 309° |
| 2026-04-29 07:09 | 18.21459 | -65.79115 | 5814 ft | 116 kts | 309° |
| 2026-04-29 07:09 | 18.21994 | -65.79764 | 5933 ft | 119 kts | 309° |
| 2026-04-29 07:09 | 18.22541 | -65.80427 | 6060 ft | 121 kts | 309° |
| 2026-04-29 07:09 | 18.23111 | -65.81118 | 6087 ft | 130 kts | 309° |
| 2026-04-29 07:10 | 18.23730 | -65.81864 | 6093 ft | 140 kts | 309° |
| 2026-04-29 07:10 | 18.24386 | -65.82655 | 6088 ft | 147 kts | 309° |
| 2026-04-29 07:10 | 18.25066 | -65.83480 | 6095 ft | 151 kts | 309° |
| 2026-04-29 07:10 | 18.25759 | -65.84321 | 6114 ft | 153 kts | 309° |
| 2026-04-29 07:11 | 18.26464 | -65.85175 | 6113 ft | 155 kts | 309° |
| 2026-04-29 07:11 | 18.27175 | -65.86038 | 6111 ft | 157 kts | 309° |
| 2026-04-29 07:11 | 18.27890 | -65.86905 | 6111 ft | 157 kts | 309° |
| 2026-04-29 07:11 | 18.28605 | -65.87772 | 6112 ft | 157 kts | 309° |
| 2026-04-29 07:12 | 18.29320 | -65.88641 | 6111 ft | 157 kts | 309° |
| 2026-04-29 07:12 | 18.30035 | -65.89507 | 6111 ft | 157 kts | 309° |
| 2026-04-29 07:12 | 18.30750 | -65.90377 | 6111 ft | 157 kts | 309° |
| 2026-04-29 07:12 | 18.31467 | -65.91246 | 6111 ft | 157 kts | 309° |
| 2026-04-29 07:13 | 18.32172 | -65.92103 | 6110 ft | 157 kts | 309° |
| 2026-04-29 07:13 | 18.32886 | -65.92970 | 6110 ft | 157 kts | 309° |
| 2026-04-29 07:13 | 18.33601 | -65.93836 | 6106 ft | 156 kts | 309° |
| 2026-04-29 07:13 | 18.34316 | -65.94706 | 6107 ft | 156 kts | 309° |
| 2026-04-29 07:14 | 18.35017 | -65.95558 | 6082 ft | 157 kts | 309° |
| 2026-04-29 07:14 | 18.35737 | -65.96435 | 5959 ft | 157 kts | 308° |
| 2026-04-29 07:14 | 18.36188 | -65.97453 | 5830 ft | 154 kts | 278° |
| 2026-04-29 07:14 | 18.36218 | -65.98588 | 5634 ft | 156 kts | 268° |
| 2026-04-29 07:15 | 18.36218 | -65.99752 | 5436 ft | 158 kts | 269° |
| 2026-04-29 07:15 | 18.36223 | -66.00890 | 5239 ft | 155 kts | 269° |
| 2026-04-29 07:15 | 18.36228 | -66.01998 | 5029 ft | 148 kts | 269° |
| 2026-04-29 07:15 | 18.36234 | -66.03052 | 4809 ft | 140 kts | 269° |
| 2026-04-29 07:16 | 18.36237 | -66.04052 | 4586 ft | 134 kts | 269° |
| 2026-04-29 07:16 | 18.36216 | -66.05020 | 4366 ft | 130 kts | 267° |
| 2026-04-29 07:16 | 18.36187 | -66.05979 | 4148 ft | 128 kts | 267° |
| 2026-04-29 07:16 | 18.36157 | -66.06912 | 3937 ft | 127 kts | 267° |
| 2026-04-29 07:17 | 18.36128 | -66.07836 | 3730 ft | 126 kts | 267° |
| 2026-04-29 07:17 | 18.36100 | -66.08753 | 3525 ft | 125 kts | 267° |
| 2026-04-29 07:17 | 18.36073 | -66.09653 | 3313 ft | 120 kts | 267° |
| 2026-04-29 07:17 | 18.36047 | -66.10512 | 3094 ft | 117 kts | 267° |
| 2026-04-29 07:18 | 18.36019 | -66.11365 | 2894 ft | 119 kts | 267° |
| 2026-04-29 07:18 | 18.35992 | -66.12253 | 2695 ft | 120 kts | 267° |
| 2026-04-29 07:18 | 18.35966 | -66.13121 | 2502 ft | 121 kts | 267° |
| 2026-04-29 07:18 | 18.35939 | -66.14005 | 2306 ft | 121 kts | 267° |
| 2026-04-29 07:19 | 18.35911 | -66.14891 | 2109 ft | 121 kts | 267° |
| 2026-04-29 07:19 | 18.35883 | -66.15779 | 1907 ft | 121 kts | 267° |
| 2026-04-29 07:19 | 18.35857 | -66.16667 | 1714 ft | 121 kts | 267° |
| 2026-04-29 07:19 | 18.35831 | -66.17554 | 1520 ft | 121 kts | 267° |
| 2026-04-29 07:20 | 18.35805 | -66.18393 | 1490 ft | 110 kts | 266° |
| 2026-04-29 07:20 | 18.35897 | -66.19159 | 1480 ft | 106 kts | 304° |
| 2026-04-29 07:20 | 18.36538 | -66.19429 | 1505 ft | 106 kts | 357° |
| 2026-04-29 07:20 | 18.37310 | -66.19481 | 1512 ft | 116 kts | 354° |
| 2026-04-29 07:21 | 18.38145 | -66.19543 | 1514 ft | 124 kts | 354° |
| 2026-04-29 07:21 | 18.39019 | -66.19605 | 1511 ft | 128 kts | 355° |
| 2026-04-29 07:21 | 18.39918 | -66.19668 | 1513 ft | 130 kts | 354° |
| 2026-04-29 07:21 | 18.40831 | -66.19731 | 1509 ft | 132 kts | 355° |
| 2026-04-29 07:22 | 18.41754 | -66.19796 | 1508 ft | 133 kts | 355° |
| 2026-04-29 07:22 | 18.42683 | -66.19848 | 1503 ft | 135 kts | 3° |
| 2026-04-29 07:22 | 18.43459 | -66.19374 | 1489 ft | 130 kts | 60° |
| 2026-04-29 07:22 | 18.43475 | -66.18511 | 1482 ft | 118 kts | 123° |
| 2026-04-29 07:23 | 18.42956 | -66.17896 | 1484 ft | 112 kts | 111° |
| 2026-04-29 07:23 | 18.43081 | -66.17142 | 1497 ft | 107 kts | 65° |
| 2026-04-29 07:23 | 18.43266 | -66.16392 | 1490 ft | 105 kts | 90° |
| 2026-04-29 07:23 | 18.43323 | -66.15629 | 1531 ft | 105 kts | 86° |
| 2026-04-29 07:24 | 18.43356 | -66.14848 | 1512 ft | 108 kts | 88° |
| 2026-04-29 07:24 | 18.43374 | -66.14056 | 1509 ft | 109 kts | 89° |
| 2026-04-29 07:24 | 18.43390 | -66.13258 | 1511 ft | 109 kts | 90° |
| 2026-04-29 07:24 | 18.43383 | -66.12470 | 1506 ft | 106 kts | 90° |
| 2026-04-29 07:25 | 18.43384 | -66.11699 | 1500 ft | 105 kts | 91° |
| 2026-04-29 07:25 | 18.43384 | -66.10935 | 1495 ft | 104 kts | 90° |
| 2026-04-29 07:25 | 18.43378 | -66.10176 | 1491 ft | 104 kts | 91° |
| 2026-04-29 07:25 | 18.43381 | -66.09419 | 1490 ft | 103 kts | 91° |
| 2026-04-29 07:26 | 18.43375 | -66.08629 | 1383 ft | 113 kts | 90° |
| 2026-04-29 07:26 | 18.43372 | -66.07781 | 1235 ft | 120 kts | 91° |
| 2026-04-29 07:26 | 18.43372 | -66.06886 | 1075 ft | 124 kts | 90° |
| 2026-04-29 07:26 | 18.43367 | -66.05969 | 903 ft | 125 kts | 91° |
| 2026-04-29 07:27 | 18.43367 | -66.05365 | 790 ft | 124 kts | 90° |
| 2026-04-29 07:27 | 18.43364 | -66.04381 | 607 ft | 121 kts | 91° |
| 2026-04-29 07:27 | 18.43370 | -66.03509 | 465 ft | 113 kts | 90° |
| 2026-04-29 07:27 | 18.43358 | -66.02755 | 377 ft | 98 kts | 92° |
| 2026-04-29 07:28 | 18.43368 | -66.02041 | 210 ft | 99 kts | 89° |
| 2026-04-29 07:28 | 18.43361 | -66.01298 | 54 ft | 101 kts | 91° |
| 2026-04-29 07:28 | 18.43361 | -66.00615 | 18 ft | 82 kts | 92° |
| 2026-04-29 07:28 | 18.43353 | -66.00107 | 17 ft | 49 kts | 90° |
| 2026-04-29 07:29 | 18.43389 | -65.99951 | 19 ft | 17 kts | 58° |
| 2026-04-29 07:29 | 18.43417 | -65.99902 | 18 ft | 3 kts | 59° |
| 2026-04-29 07:29 | 18.43441 | -65.99851 | 18 ft | 12 kts | 64° |
| 2026-04-29 07:29 | 18.43466 | -65.99789 | 17 ft | 0 kts | 75° |
| 2026-04-29 07:30 | 18.43479 | -65.99790 | 17 ft | 6 kts | 325° |
| 2026-04-29 07:30 | 18.43543 | -65.99804 | 17 ft | 14 kts | 43° |
| 2026-04-29 07:30 | 18.43603 | -65.99714 | 17 ft | 14 kts | 16° |
| 2026-04-29 07:31 | 18.43619 | -65.99734 | 17 ft | 0 kts | 269° |